»·PEaware :: ASA2116 KFAT-KEUG

ASA2116 :: KFAT-KEUG

FLIGHT INFORMATION

Flight Status: Arrived
Operator:
Alaska Airlines
More flights by this operator :: More flights under this callsign
Pilot: Will K. (13011)
Aircraft: BOEING 737-900
(B739)
More flights by this aircraft type
Origin: KFAT Fresno Yosemite Intl
United States
Destination: KEUG Mahlon Sweet
United States
More flights between these airports :: More routes between these airports
Route: +BULL3 CZQ RBL EUG
File this flight plan on PilotEdge
Remarks:
Altitude:
(Current/Filed)
34,000ft
Speed:
(Current/Filed)
475kts
Departed: 04-Nov-18 04:53 PM
Arrived: 04-Nov-18 06:25 PM
Distance/Time
Traveled:
469nm/1:32
Distance/Time
To Go:
Arrived

Flight Plot

Page will automatically refresh every two minutes.

Flight plan parsing failed; only flown route is shown


Map Options




Map Legend


Flown Route
Filed Route
Departure Airport
Arrival Airport
Navaid (VOR, NDB)
Fix

Horizontal Profiles

Position Reports

Time Latitude Longitude Heading Altitude Ground
Speed
04-Nov-18 16:22 36.771690 -119.717476 191 344ft 0kts
04-Nov-18 16:24 36.771690 -119.717476 191 344ft 0kts
04-Nov-18 16:24 36.771690 -119.717476 191 344ft 0kts
04-Nov-18 16:25 36.771690 -119.717476 191 344ft 0kts
04-Nov-18 16:26 36.771690 -119.717476 191 344ft 0kts
04-Nov-18 16:27 36.771690 -119.717476 191 344ft 0kts
04-Nov-18 16:28 36.771690 -119.717476 191 344ft 0kts
04-Nov-18 16:29 36.771690 -119.717476 191 344ft 0kts
04-Nov-18 16:30 36.771690 -119.717476 191 344ft 0kts
04-Nov-18 16:31 36.771690 -119.717476 191 344ft 0kts
04-Nov-18 16:32 36.771690 -119.717476 191 344ft 0kts
04-Nov-18 16:34 36.771690 -119.717476 191 344ft 0kts
04-Nov-18 16:35 36.771690 -119.717476 191 344ft 0kts
04-Nov-18 16:36 36.771690 -119.717476 191 344ft 0kts
04-Nov-18 16:37 36.771690 -119.717476 191 344ft 0kts
04-Nov-18 16:38 36.771690 -119.717476 191 344ft 0kts
04-Nov-18 16:39 36.771690 -119.717476 191 344ft 0kts
04-Nov-18 16:40 36.771690 -119.717476 191 344ft 0kts
04-Nov-18 16:41 36.771690 -119.717476 191 344ft 0kts
04-Nov-18 16:42 36.771690 -119.717476 191 344ft 0kts
04-Nov-18 16:43 36.771690 -119.717476 191 344ft 0kts
04-Nov-18 16:44 36.771690 -119.717476 191 344ft 0kts
04-Nov-18 16:45 36.771698 -119.717474 191 344ft 0kts
04-Nov-18 16:46 36.772306 -119.717304 194 344ft 2kts
04-Nov-18 16:47 36.772937 -119.717257 157 344ft 2kts
04-Nov-18 16:48 36.773219 -119.717616 125 344ft 0kts
04-Nov-18 16:49 36.773219 -119.717616 125 344ft 0kts
04-Nov-18 16:50 36.773219 -119.717616 125 344ft 0kts
04-Nov-18 16:51 36.773219 -119.717616 125 344ft 0kts
04-Nov-18 16:52 36.772348 -119.716083 126 344ft 15kts
04-Nov-18 16:53 36.769765 -119.711480 98 344ft 7kts
04-Nov-18 16:54 36.770072 -119.710960 37 344ft 0kts
04-Nov-18 16:55 36.770125 -119.710910 37 344ft 5kts
04-Nov-18 16:56 36.774754 -119.717853 304 344ft 115kts
04-Nov-18 16:57 36.803187 -119.768196 306 2274ft 203kts
04-Nov-18 16:58 36.838837 -119.830731 303 4940ft 243kts
04-Nov-18 16:59 36.894891 -119.887603 331 7936ft 276kts
04-Nov-18 17:00 36.963667 -119.935525 330 9985ft 285kts
04-Nov-18 17:01 37.033339 -119.984259 330 10020ft 316kts
04-Nov-18 17:02 37.114421 -120.041176 328 12778ft 334kts
04-Nov-18 17:03 37.197354 -120.099215 328 15485ft 347kts
04-Nov-18 17:04 37.283079 -120.159061 328 18027ft 357kts
04-Nov-18 17:05 37.371047 -120.220912 328 20246ft 368kts
04-Nov-18 17:06 37.461669 -120.284970 327 22208ft 378kts
04-Nov-18 17:07 37.554820 -120.351010 327 23944ft 388kts
04-Nov-18 17:08 37.649809 -120.418573 327 25491ft 396kts
04-Nov-18 17:09 37.746943 -120.487883 327 26854ft 404kts
04-Nov-18 17:10 37.845448 -120.558395 326 28050ft 410kts
04-Nov-18 17:11 37.945660 -120.630350 326 29076ft 416kts
04-Nov-18 17:12 38.045265 -120.702092 326 30812ft 402kts
04-Nov-18 17:13 38.142489 -120.772341 326 31950ft 401kts
04-Nov-18 17:14 38.238729 -120.842088 326 33110ft 396kts
04-Nov-18 17:15 38.334269 -120.911548 326 34004ft 395kts
04-Nov-18 17:16 38.429422 -120.980911 325 34019ft 392kts
04-Nov-18 17:17 38.523938 -121.050024 325 34010ft 392kts
04-Nov-18 17:18 38.618609 -121.119456 325 33997ft 392kts
04-Nov-18 17:19 38.713339 -121.189142 325 33996ft 392kts
04-Nov-18 17:20 38.807459 -121.258618 325 34010ft 391kts
04-Nov-18 17:21 38.901676 -121.328315 325 33994ft 390kts
04-Nov-18 17:22 38.995709 -121.398091 325 33990ft 390kts
04-Nov-18 17:23 39.089609 -121.467973 325 33983ft 389kts
04-Nov-18 17:24 39.183366 -121.537948 325 33988ft 388kts
04-Nov-18 17:25 39.276595 -121.607692 325 34003ft 387kts
04-Nov-18 17:26 39.369538 -121.677427 324 34012ft 386kts
04-Nov-18 17:27 39.462687 -121.747382 325 34017ft 386kts
04-Nov-18 17:28 39.555128 -121.816803 324 34020ft 385kts
04-Nov-18 17:29 39.647904 -121.886818 324 34020ft 384kts
04-Nov-18 17:30 39.740246 -121.956659 324 34020ft 384kts
04-Nov-18 17:31 39.832689 -122.026703 323 34023ft 383kts
04-Nov-18 17:32 39.922985 -122.099817 323 34027ft 383kts
04-Nov-18 17:33 40.014610 -122.171145 324 34029ft 383kts
04-Nov-18 17:34 40.111156 -122.231281 339 34031ft 396kts
04-Nov-18 17:35 40.219218 -122.261199 341 34030ft 398kts
04-Nov-18 17:36 40.326866 -122.287907 341 34031ft 400kts
04-Nov-18 17:37 40.436306 -122.314071 341 34032ft 399kts
04-Nov-18 17:38 40.545848 -122.339756 341 34030ft 399kts
04-Nov-18 17:39 40.655405 -122.365419 341 34040ft 400kts
04-Nov-18 17:40 40.764871 -122.391109 341 34062ft 399kts
04-Nov-18 17:41 40.874264 -122.416849 341 34090ft 399kts
04-Nov-18 17:42 40.983614 -122.442671 341 34115ft 399kts
04-Nov-18 17:43 41.092732 -122.468519 341 34135ft 398kts
04-Nov-18 17:44 41.201669 -122.494390 340 34148ft 397kts
04-Nov-18 17:45 41.310317 -122.520296 340 34154ft 397kts
04-Nov-18 17:46 41.419305 -122.546374 340 34166ft 396kts
04-Nov-18 17:47 41.527800 -122.572424 340 34178ft 396kts
04-Nov-18 17:48 41.636178 -122.598523 340 34191ft 395kts
04-Nov-18 17:49 41.744564 -122.624702 340 34197ft 395kts
04-Nov-18 17:50 41.853087 -122.651039 340 34200ft 395kts
04-Nov-18 17:51 41.961274 -122.677342 340 34200ft 395kts
04-Nov-18 17:52 42.068884 -122.703602 339 34204ft 391kts
04-Nov-18 17:53 42.175965 -122.729843 339 34211ft 391kts
04-Nov-18 17:54 42.282591 -122.756060 339 34216ft 389kts
04-Nov-18 17:55 42.389186 -122.782369 339 34219ft 389kts
04-Nov-18 17:56 42.495744 -122.808740 339 34219ft 388kts
04-Nov-18 17:57 42.601709 -122.835079 339 34216ft 387kts
04-Nov-18 17:58 42.707821 -122.861518 339 34214ft 387kts
04-Nov-18 17:59 42.813452 -122.887945 339 34215ft 386kts
04-Nov-18 18:00 42.917548 -122.914081 339 32356ft 371kts
04-Nov-18 18:01 43.016220 -122.938925 339 30330ft 350kts
04-Nov-18 18:02 43.109479 -122.962511 338 28419ft 330kts
04-Nov-18 18:03 43.199042 -122.985182 338 25949ft 329kts
04-Nov-18 18:04 43.286661 -123.007443 338 24737ft 317kts
04-Nov-18 18:05 43.371121 -123.028981 338 22979ft 299kts
04-Nov-18 18:06 43.450854 -123.049368 338 21312ft 289kts
04-Nov-18 18:07 43.532671 -123.070351 339 19591ft 298kts
04-Nov-18 18:08 43.612010 -123.090743 340 17904ft 282kts
04-Nov-18 18:09 43.688333 -123.110424 340 16240ft 279kts
04-Nov-18 18:10 43.765812 -123.130423 342 14530ft 286kts
04-Nov-18 18:11 43.845260 -123.150925 343 13358ft 295kts
04-Nov-18 18:12 43.925969 -123.171986 340 12344ft 292kts
04-Nov-18 18:13 43.960956 -123.253992 286 11011ft 257kts
04-Nov-18 18:14 43.979399 -123.351619 280 8433ft 265kts
04-Nov-18 18:15 43.928291 -123.412845 196 7241ft 273kts
04-Nov-18 18:16 43.857710 -123.435149 196 6210ft 251kts
04-Nov-18 18:17 43.793221 -123.453536 174 5282ft 234kts
04-Nov-18 18:18 43.778421 -123.382358 66 4971ft 208kts
04-Nov-18 18:19 43.800299 -123.309751 64 4211ft 203kts
04-Nov-18 18:20 43.822274 -123.236403 65 4214ft 206kts
04-Nov-18 18:21 43.867833 -123.214930 355 4227ft 175kts
04-Nov-18 18:22 43.915169 -123.215899 356 3460ft 169kts
04-Nov-18 18:23 43.959159 -123.216540 356 2970ft 153kts
04-Nov-18 18:24 44.001263 -123.217149 356 2384ft 148kts
04-Nov-18 18:25 44.043066 -123.217756 356 2083ft 151kts
04-Nov-18 18:26 44.084745 -123.218360 356 1258ft 149kts
04-Nov-18 18:26 44.119188 -123.218922 356 379ft 143kts
04-Nov-18 18:28 44.133776 -123.218010 86 377ft 7kts
04-Nov-18 18:29 44.130991 -123.217270 179 377ft 11kts
04-Nov-18 18:30 44.125883 -123.217220 178 377ft 16kts
04-Nov-18 18:30 44.122893 -123.215901 143 377ft 16kts
04-Nov-18 18:31 44.120755 -123.213744 178 377ft 6kts
04-Nov-18 18:32 44.120374 -123.213994 208 377ft 0kts
04-Nov-18 18:33 44.120374 -123.213994 208 377ft 0kts
04-Nov-18 18:34 44.120374 -123.213994 208 377ft 0kts
04-Nov-18 18:35 44.120374 -123.213994 208 377ft 0kts

Navigation Log

Ident Type
Flight plan parsing failed, navigation log unavailable